sensor_id;sensor_type;location;lat;lon;timestamp;temperature;humidity
55365;DHT22;41245;45.384;20.390;2022-08-25T00:01:28;538.10;307.20
55365;DHT22;41245;45.384;20.390;2022-08-25T00:03:59;537.80;281.60
55365;DHT22;41245;45.384;20.390;2022-08-25T00:06:25;538.10;204.80
55365;DHT22;41245;45.384;20.390;2022-08-25T00:08:51;538.00;256.00
55365;DHT22;41245;45.384;20.390;2022-08-25T00:11:23;538.00;281.60
55365;DHT22;41245;45.384;20.390;2022-08-25T00:13:56;538.00;256.00
55365;DHT22;41245;45.384;20.390;2022-08-25T00:16:23;538.00;230.40
55365;DHT22;41245;45.384;20.390;2022-08-25T00:18:53;537.90;332.80
55365;DHT22;41245;45.384;20.390;2022-08-25T00:21:20;537.90;332.80
55365;DHT22;41245;45.384;20.390;2022-08-25T00:23:46;537.90;332.80
55365;DHT22;41245;45.384;20.390;2022-08-25T00:26:12;537.90;307.20
55365;DHT22;41245;45.384;20.390;2022-08-25T00:28:38;537.90;307.20
55365;DHT22;41245;45.384;20.390;2022-08-25T00:31:05;537.90;256.00
55365;DHT22;41245;45.384;20.390;2022-08-25T00:33:31;537.90;307.20
55365;DHT22;41245;45.384;20.390;2022-08-25T00:35:58;537.90;358.40
55365;DHT22;41245;45.384;20.390;2022-08-25T00:38:25;537.90;307.20
55365;DHT22;41245;45.384;20.390;2022-08-25T00:40:51;537.90;281.60
55365;DHT22;41245;45.384;20.390;2022-08-25T00:46:10;537.90;204.80
55365;DHT22;41245;45.384;20.390;2022-08-25T00:48:38;537.90;204.80
55365;DHT22;41245;45.384;20.390;2022-08-25T00:51:07;537.80;153.60
55365;DHT22;41245;45.384;20.390;2022-08-25T00:53:34;538.20;128.00
55365;DHT22;41245;45.384;20.390;2022-08-25T00:56:00;537.80;128.00
55365;DHT22;41245;45.384;20.390;2022-08-25T00:58:27;537.80;128.00
55365;DHT22;41245;45.384;20.390;2022-08-25T01:00:56;537.70;128.00
55365;DHT22;41245;45.384;20.390;2022-08-25T01:03:24;537.70;128.00
55365;DHT22;41245;45.384;20.390;2022-08-25T01:05:51;537.70;128.00
55365;DHT22;41245;45.384;20.390;2022-08-25T01:08:21;537.70;128.00
55365;DHT22;41245;45.384;20.390;2022-08-25T01:10:49;537.70;128.00
55365;DHT22;41245;45.384;20.390;2022-08-25T01:13:23;512.80;128.00
55365;DHT22;41245;45.384;20.390;2022-08-25T01:15:53;537.70;128.00
55365;DHT22;41245;45.384;20.390;2022-08-25T01:18:21;537.70;128.00
55365;DHT22;41245;45.384;20.390;2022-08-25T01:20:52;537.60;128.00
55365;DHT22;41245;45.384;20.390;2022-08-25T01:23:19;537.60;128.00
55365;DHT22;41245;45.384;20.390;2022-08-25T01:28:21;537.60;128.00
55365;DHT22;41245;45.384;20.390;2022-08-25T01:30:47;538.20;128.00
55365;DHT22;41245;45.384;20.390;2022-08-25T01:33:13;512.90;128.00
55365;DHT22;41245;45.384;20.390;2022-08-25T01:35:42;537.60;128.00
55365;DHT22;41245;45.384;20.390;2022-08-25T01:38:09;512.90;128.00
55365;DHT22;41245;45.384;20.390;2022-08-25T01:40:36;512.90;128.00
55365;DHT22;41245;45.384;20.390;2022-08-25T01:43:34;512.90;128.00
55365;DHT22;41245;45.384;20.390;2022-08-25T01:46:01;512.80;128.00
55365;DHT22;41245;45.384;20.390;2022-08-25T01:48:27;512.80;128.00
55365;DHT22;41245;45.384;20.390;2022-08-25T01:50:52;512.80;128.00
55365;DHT22;41245;45.384;20.390;2022-08-25T01:53:26;512.80;128.00
55365;DHT22;41245;45.384;20.390;2022-08-25T01:55:52;512.80;128.00
55365;DHT22;41245;45.384;20.390;2022-08-25T01:58:32;512.80;128.00
55365;DHT22;41245;45.384;20.390;2022-08-25T02:01:00;512.80;128.00
55365;DHT22;41245;45.384;20.390;2022-08-25T02:03:27;563.30;128.00
55365;DHT22;41245;45.384;20.390;2022-08-25T02:05:54;512.80;128.00
55365;DHT22;41245;45.384;20.390;2022-08-25T02:08:20;512.90;128.00
55365;DHT22;41245;45.384;20.390;2022-08-25T02:10:48;537.60;128.00
55365;DHT22;41245;45.384;20.390;2022-08-25T02:13:14;537.60;128.00
55365;DHT22;41245;45.384;20.390;2022-08-25T02:15:46;537.70;128.00
55365;DHT22;41245;45.384;20.390;2022-08-25T02:18:12;537.70;128.00
55365;DHT22;41245;45.384;20.390;2022-08-25T02:20:38;537.70;128.00
55365;DHT22;41245;45.384;20.390;2022-08-25T02:23:04;537.80;128.00
55365;DHT22;41245;45.384;20.390;2022-08-25T02:25:31;537.70;128.00
55365;DHT22;41245;45.384;20.390;2022-08-25T02:27:57;537.70;128.00
55365;DHT22;41245;45.384;20.390;2022-08-25T02:30:23;537.60;128.00
55365;DHT22;41245;45.384;20.390;2022-08-25T02:32:49;537.70;128.00
55365;DHT22;41245;45.384;20.390;2022-08-25T02:35:16;537.70;128.00
55365;DHT22;41245;45.384;20.390;2022-08-25T02:37:41;537.70;128.00
55365;DHT22;41245;45.384;20.390;2022-08-25T02:40:08;537.70;128.00
55365;DHT22;41245;45.384;20.390;2022-08-25T02:42:34;537.70;128.00
55365;DHT22;41245;45.384;20.390;2022-08-25T02:45:00;537.60;128.00
55365;DHT22;41245;45.384;20.390;2022-08-25T02:47:26;537.60;128.00
55365;DHT22;41245;45.384;20.390;2022-08-25T02:49:51;537.70;128.00
55365;DHT22;41245;45.384;20.390;2022-08-25T02:52:17;537.70;128.00
55365;DHT22;41245;45.384;20.390;2022-08-25T02:54:44;537.70;128.00
55365;DHT22;41245;45.384;20.390;2022-08-25T02:57:09;537.70;128.00
55365;DHT22;41245;45.384;20.390;2022-08-25T02:59:37;537.60;128.00
55365;DHT22;41245;45.384;20.390;2022-08-25T03:02:04;537.60;128.00
55365;DHT22;41245;45.384;20.390;2022-08-25T03:04:31;537.60;128.00
55365;DHT22;41245;45.384;20.390;2022-08-25T03:06:57;512.90;128.00
55365;DHT22;41245;45.384;20.390;2022-08-25T03:09:25;512.90;128.00
55365;DHT22;41245;45.384;20.390;2022-08-25T03:11:51;512.90;128.00
55365;DHT22;41245;45.384;20.390;2022-08-25T03:14:16;512.80;128.00
55365;DHT22;41245;45.384;20.390;2022-08-25T03:16:42;512.90;128.00
55365;DHT22;41245;45.384;20.390;2022-08-25T03:19:09;512.80;128.00
55365;DHT22;41245;45.384;20.390;2022-08-25T03:21:36;512.80;128.00
55365;DHT22;41245;45.384;20.390;2022-08-25T03:24:02;512.80;128.00
55365;DHT22;41245;45.384;20.390;2022-08-25T03:26:28;512.70;128.00
55365;DHT22;41245;45.384;20.390;2022-08-25T03:29:13;512.70;128.00
55365;DHT22;41245;45.384;20.390;2022-08-25T03:31:40;512.70;128.00
55365;DHT22;41245;45.384;20.390;2022-08-25T03:34:08;512.70;128.00
55365;DHT22;41245;45.384;20.390;2022-08-25T03:36:34;512.70;128.00
55365;DHT22;41245;45.384;20.390;2022-08-25T03:38:59;512.70;128.00
55365;DHT22;41245;45.384;20.390;2022-08-25T03:41:28;512.70;128.00
55365;DHT22;41245;45.384;20.390;2022-08-25T03:43:57;512.70;128.00
55365;DHT22;41245;45.384;20.390;2022-08-25T03:46:28;512.70;128.00
55365;DHT22;41245;45.384;20.390;2022-08-25T03:48:54;512.60;128.00
55365;DHT22;41245;45.384;20.390;2022-08-25T03:51:26;512.60;128.00
55365;DHT22;41245;45.384;20.390;2022-08-25T03:53:52;512.70;128.00
55365;DHT22;41245;45.384;20.390;2022-08-25T03:56:19;512.70;128.00
55365;DHT22;41245;45.384;20.390;2022-08-25T03:58:45;512.70;128.00
55365;DHT22;41245;45.384;20.390;2022-08-25T04:01:12;512.70;128.00
55365;DHT22;41245;45.384;20.390;2022-08-25T04:03:38;512.70;128.00
55365;DHT22;41245;45.384;20.390;2022-08-25T04:06:05;512.70;128.00
55365;DHT22;41245;45.384;20.390;2022-08-25T04:08:32;512.70;128.00
55365;DHT22;41245;45.384;20.390;2022-08-25T04:10:58;512.80;128.00
55365;DHT22;41245;45.384;20.390;2022-08-25T04:13:24;512.50;128.00
55365;DHT22;41245;45.384;20.390;2022-08-25T04:15:50;512.80;128.00
55365;DHT22;41245;45.384;20.390;2022-08-25T04:18:15;512.80;128.00
55365;DHT22;41245;45.384;20.390;2022-08-25T04:20:42;512.90;128.00
55365;DHT22;41245;45.384;20.390;2022-08-25T04:23:09;512.90;128.00
55365;DHT22;41245;45.384;20.390;2022-08-25T04:25:38;537.60;128.00
55365;DHT22;41245;45.384;20.390;2022-08-25T04:28:06;537.70;128.00
55365;DHT22;41245;45.384;20.390;2022-08-25T04:30:33;537.80;128.00
55365;DHT22;41245;45.384;20.390;2022-08-25T04:32:59;537.90;128.00
55365;DHT22;41245;45.384;20.390;2022-08-25T04:35:25;537.90;128.00
55365;DHT22;41245;45.384;20.390;2022-08-25T04:37:51;538.10;128.00
55365;DHT22;41245;45.384;20.390;2022-08-25T04:40:16;538.20;128.00
55365;DHT22;41245;45.384;20.390;2022-08-25T04:42:42;538.30;128.00
55365;DHT22;41245;45.384;20.390;2022-08-25T04:45:09;538.40;204.80
55365;DHT22;41245;45.384;20.390;2022-08-25T04:47:37;538.40;332.80
55365;DHT22;41245;45.384;20.390;2022-08-25T04:50:04;538.50;358.40
55365;DHT22;41245;45.384;20.390;2022-08-25T04:52:30;563.20;281.60
55365;DHT22;41245;45.384;20.390;2022-08-25T04:54:55;563.30;230.40
55365;DHT22;41245;45.384;20.390;2022-08-25T04:57:21;563.40;281.60
55365;DHT22;41245;45.384;20.390;2022-08-25T04:59:47;563.60;332.80
55365;DHT22;41245;45.384;20.390;2022-08-25T05:02:13;563.80;409.60
55365;DHT22;41245;45.384;20.390;2022-08-25T05:04:38;563.90;588.80
55365;DHT22;41245;45.384;20.390;2022-08-25T05:07:04;564.00;588.80
55365;DHT22;41245;45.384;20.390;2022-08-25T05:09:30;588.90;691.20
55365;DHT22;41245;45.384;20.390;2022-08-25T05:11:56;589.10;716.80
55365;DHT22;41245;45.384;20.390;2022-08-25T05:14:22;589.20;128.00
55365;DHT22;41245;45.384;20.390;2022-08-25T05:16:48;589.30;128.00
55365;DHT22;41245;45.384;20.390;2022-08-25T05:19:14;589.40;128.00
55365;DHT22;41245;45.384;20.390;2022-08-25T05:21:40;589.60;128.00
55365;DHT22;41245;45.384;20.390;2022-08-25T05:24:06;614.40;128.00
55365;DHT22;41245;45.384;20.390;2022-08-25T05:26:33;614.60;128.00
55365;DHT22;41245;45.384;20.390;2022-08-25T05:29:00;614.70;128.00
55365;DHT22;41245;45.384;20.390;2022-08-25T05:31:27;614.90;128.00
55365;DHT22;41245;45.384;20.390;2022-08-25T05:33:54;615.20;128.00
55365;DHT22;41245;45.384;20.390;2022-08-25T05:36:20;640.20;128.00
55365;DHT22;41245;45.384;20.390;2022-08-25T05:38:48;640.40;128.00
55365;DHT22;41245;45.384;20.390;2022-08-25T05:41:17;665.60;153.60
55365;DHT22;41245;45.384;20.390;2022-08-25T05:43:44;640.90;128.00
55365;DHT22;41245;45.384;20.390;2022-08-25T05:46:11;665.60;153.60
55365;DHT22;41245;45.384;20.390;2022-08-25T05:48:37;665.60;153.60
55365;DHT22;41245;45.384;20.390;2022-08-25T05:51:05;640.90;128.00
55365;DHT22;41245;45.384;20.390;2022-08-25T05:53:32;640.50;128.00
55365;DHT22;41245;45.384;20.390;2022-08-25T05:55:58;640.30;128.00
55365;DHT22;41245;45.384;20.390;2022-08-25T05:58:26;640.20;128.00
55365;DHT22;41245;45.384;20.390;2022-08-25T06:00:53;640.20;128.00
55365;DHT22;41245;45.384;20.390;2022-08-25T06:03:19;640.10;128.00
55365;DHT22;41245;45.384;20.390;2022-08-25T06:05:45;640.00;128.00
55365;DHT22;41245;45.384;20.390;2022-08-25T06:08:10;640.10;128.00
55365;DHT22;41245;45.384;20.390;2022-08-25T06:10:36;640.10;128.00
55365;DHT22;41245;45.384;20.390;2022-08-25T06:13:04;640.10;128.00
55365;DHT22;41245;45.384;20.390;2022-08-25T06:15:30;640.20;128.00
55365;DHT22;41245;45.384;20.390;2022-08-25T06:17:56;640.30;128.00
55365;DHT22;41245;45.384;20.390;2022-08-25T06:20:28;640.30;128.00
55365;DHT22;41245;45.384;20.390;2022-08-25T06:22:56;640.30;128.00
55365;DHT22;41245;45.384;20.390;2022-08-25T06:25:24;640.30;128.00
55365;DHT22;41245;45.384;20.390;2022-08-25T06:27:50;640.30;128.00
55365;DHT22;41245;45.384;20.390;2022-08-25T06:30:18;640.30;128.00
55365;DHT22;41245;45.384;20.390;2022-08-25T06:32:45;640.30;128.00
55365;DHT22;41245;45.384;20.390;2022-08-25T06:35:17;640.50;128.00
55365;DHT22;41245;45.384;20.390;2022-08-25T06:37:43;640.50;128.00
55365;DHT22;41245;45.384;20.390;2022-08-25T06:40:11;640.50;128.00
55365;DHT22;41245;45.384;20.390;2022-08-25T06:42:37;640.60;128.00
55365;DHT22;41245;45.384;20.390;2022-08-25T06:45:03;640.60;128.00
55365;DHT22;41245;45.384;20.390;2022-08-25T06:47:29;640.80;128.00
55365;DHT22;41245;45.384;20.390;2022-08-25T06:49:55;640.40;128.00
55365;DHT22;41245;45.384;20.390;2022-08-25T06:52:20;640.90;128.00
55365;DHT22;41245;45.384;20.390;2022-08-25T06:54:46;665.60;153.60
55365;DHT22;41245;45.384;20.390;2022-08-25T06:57:12;640.90;128.00
55365;DHT22;41245;45.384;20.390;2022-08-25T06:59:38;665.60;153.60
55365;DHT22;41245;45.384;20.390;2022-08-25T07:02:04;665.70;153.60
55365;DHT22;41245;45.384;20.390;2022-08-25T07:04:32;665.80;153.60
55365;DHT22;41245;45.384;20.390;2022-08-25T07:06:58;665.90;153.60
55365;DHT22;41245;45.384;20.390;2022-08-25T07:09:24;666.00;153.60
55365;DHT22;41245;45.384;20.390;2022-08-25T07:11:49;666.10;153.60
55365;DHT22;41245;45.384;20.390;2022-08-25T07:14:17;666.20;153.60
55365;DHT22;41245;45.384;20.390;2022-08-25T07:16:43;666.30;153.60
55365;DHT22;41245;45.384;20.390;2022-08-25T07:19:10;665.80;153.60
55365;DHT22;41245;45.384;20.390;2022-08-25T07:21:37;666.30;153.60
55365;DHT22;41245;45.384;20.390;2022-08-25T07:24:06;666.50;153.60
55365;DHT22;41245;45.384;20.390;2022-08-25T07:26:33;666.50;153.60
55365;DHT22;41245;45.384;20.390;2022-08-25T07:29:06;666.30;153.60
55365;DHT22;41245;45.384;20.390;2022-08-25T07:31:33;666.30;153.60
55365;DHT22;41245;45.384;20.390;2022-08-25T07:33:59;691.20;153.60
55365;DHT22;41245;45.384;20.390;2022-08-25T07:36:44;691.30;153.60
55365;DHT22;41245;45.384;20.390;2022-08-25T07:39:10;691.20;153.60
55365;DHT22;41245;45.384;20.390;2022-08-25T07:41:38;691.40;153.60
55365;DHT22;41245;45.384;20.390;2022-08-25T07:44:04;691.40;153.60
55365;DHT22;41245;45.384;20.390;2022-08-25T07:46:30;691.50;153.60
55365;DHT22;41245;45.384;20.390;2022-08-25T07:48:56;691.60;153.60
55365;DHT22;41245;45.384;20.390;2022-08-25T07:51:22;691.80;153.60
55365;DHT22;41245;45.384;20.390;2022-08-25T07:53:47;691.70;153.60
55365;DHT22;41245;45.384;20.390;2022-08-25T07:56:14;691.90;153.60
55365;DHT22;41245;45.384;20.390;2022-08-25T07:58:41;691.90;153.60
55365;DHT22;41245;45.384;20.390;2022-08-25T08:01:14;692.00;153.60
55365;DHT22;41245;45.384;20.390;2022-08-25T08:03:40;692.10;153.60
55365;DHT22;41245;45.384;20.390;2022-08-25T08:06:08;692.00;153.60
55365;DHT22;41245;45.384;20.390;2022-08-25T08:08:36;716.80;179.20
55365;DHT22;41245;45.384;20.390;2022-08-25T08:11:03;716.80;179.20
55365;DHT22;41245;45.384;20.390;2022-08-25T08:13:29;716.90;179.20
55365;DHT22;41245;45.384;20.390;2022-08-25T08:15:54;716.90;179.20
55365;DHT22;41245;45.384;20.390;2022-08-25T08:18:20;717.10;179.20
55365;DHT22;41245;45.384;20.390;2022-08-25T08:20:47;717.10;179.20
55365;DHT22;41245;45.384;20.390;2022-08-25T08:23:14;717.10;179.20
55365;DHT22;41245;45.384;20.390;2022-08-25T08:25:39;717.30;179.20
55365;DHT22;41245;45.384;20.390;2022-08-25T08:28:05;717.30;179.20
55365;DHT22;41245;45.384;20.390;2022-08-25T08:30:31;717.30;179.20
55365;DHT22;41245;45.384;20.390;2022-08-25T08:32:57;717.40;179.20
55365;DHT22;41245;45.384;20.390;2022-08-25T08:37:49;717.70;179.20
55365;DHT22;41245;45.384;20.390;2022-08-25T08:40:17;717.50;179.20
55365;DHT22;41245;45.384;20.390;2022-08-25T08:43:02;717.50;179.20
55365;DHT22;41245;45.384;20.390;2022-08-25T08:45:37;717.50;179.20
55365;DHT22;41245;45.384;20.390;2022-08-25T08:56:27;742.50;204.80
55365;DHT22;41245;45.384;20.390;2022-08-25T08:59:15;742.40;204.80
55365;DHT22;41245;45.384;20.390;2022-08-25T09:04:26;742.60;204.80
55365;DHT22;41245;45.384;20.390;2022-08-25T09:06:54;742.50;204.80
55365;DHT22;41245;45.384;20.390;2022-08-25T09:09:29;742.60;204.80
55365;DHT22;41245;45.384;20.390;2022-08-25T09:18:05;742.80;204.80
55365;DHT22;41245;45.384;20.390;2022-08-25T09:31:25;742.90;204.80
55365;DHT22;41245;45.384;20.390;2022-08-25T09:33:56;743.20;204.80
55365;DHT22;41245;45.384;20.390;2022-08-25T09:36:23;768.00;204.80
55365;DHT22;41245;45.384;20.390;2022-08-25T09:38:49;768.00;204.80
55365;DHT22;41245;45.384;20.390;2022-08-25T09:41:16;743.30;204.80
55365;DHT22;41245;45.384;20.390;2022-08-25T09:43:52;743.30;204.80
55365;DHT22;41245;45.384;20.390;2022-08-25T09:46:27;768.00;204.80
55365;DHT22;41245;45.384;20.390;2022-08-25T09:49:09;768.20;204.80
55365;DHT22;41245;45.384;20.390;2022-08-25T09:51:37;768.40;204.80
55365;DHT22;41245;45.384;20.390;2022-08-25T09:56:58;768.50;204.80
55365;DHT22;41245;45.384;20.390;2022-08-25T09:59:27;768.50;204.80
55365;DHT22;41245;45.384;20.390;2022-08-25T10:01:58;768.80;204.80
55365;DHT22;41245;45.384;20.390;2022-08-25T10:04:36;768.80;204.80
55365;DHT22;41245;45.384;20.390;2022-08-25T10:07:05;768.80;204.80
55365;DHT22;41245;45.384;20.390;2022-08-25T10:09:54;768.90;204.80
55365;DHT22;41245;45.384;20.390;2022-08-25T10:17:40;793.60;230.40
55365;DHT22;41245;45.384;20.390;2022-08-25T10:22:37;793.60;230.40
55365;DHT22;41245;45.384;20.390;2022-08-25T10:25:05;794.00;230.40
55365;DHT22;41245;45.384;20.390;2022-08-25T10:30:22;794.40;230.40
55365;DHT22;41245;45.384;20.390;2022-08-25T10:33:02;794.40;230.40
55365;DHT22;41245;45.384;20.390;2022-08-25T10:38:47;794.00;230.40
55365;DHT22;41245;45.384;20.390;2022-08-25T10:47:31;794.40;230.40
55365;DHT22;41245;45.384;20.390;2022-08-25T11:01:25;768.90;204.80
55365;DHT22;41245;45.384;20.390;2022-08-25T11:04:01;793.80;230.40
55365;DHT22;41245;45.384;20.390;2022-08-25T11:06:59;794.10;230.40
55365;DHT22;41245;45.384;20.390;2022-08-25T11:09:29;794.10;230.40
55365;DHT22;41245;45.384;20.390;2022-08-25T11:12:03;794.10;230.40
55365;DHT22;41245;45.384;20.390;2022-08-25T11:14:59;794.20;230.40
55365;DHT22;41245;45.384;20.390;2022-08-25T11:20:16;794.50;230.40
55365;DHT22;41245;45.384;20.390;2022-08-25T11:23:38;819.20;230.40
55365;DHT22;41245;45.384;20.390;2022-08-25T11:25:43;819.30;230.40
55365;DHT22;41245;45.384;20.390;2022-08-25T11:28:11;819.20;230.40
55365;DHT22;41245;45.384;20.390;2022-08-25T11:30:38;819.20;230.40
55365;DHT22;41245;45.384;20.390;2022-08-25T11:33:05;794.40;230.40
55365;DHT22;41245;45.384;20.390;2022-08-25T11:35:43;794.50;230.40
55365;DHT22;41245;45.384;20.390;2022-08-25T11:40:59;819.20;230.40
55365;DHT22;41245;45.384;20.390;2022-08-25T11:46:36;819.40;230.40
55365;DHT22;41245;45.384;20.390;2022-08-25T11:51:47;820.00;230.40
55365;DHT22;41245;45.384;20.390;2022-08-25T11:54:36;844.80;256.00
55365;DHT22;41245;45.384;20.390;2022-08-25T11:57:20;844.90;256.00
55365;DHT22;41245;45.384;20.390;2022-08-25T12:02:46;845.10;256.00
55365;DHT22;41245;45.384;20.390;2022-08-25T12:10:22;844.80;256.00
55365;DHT22;41245;45.384;20.390;2022-08-25T12:13:22;844.80;256.00
55365;DHT22;41245;45.384;20.390;2022-08-25T12:18:38;845.30;256.00
55365;DHT22;41245;45.384;20.390;2022-08-25T12:23:45;845.20;256.00
55365;DHT22;41245;45.384;20.390;2022-08-25T12:26:55;844.90;256.00
55365;DHT22;41245;45.384;20.390;2022-08-25T12:29:47;845.00;256.00
55365;DHT22;41245;45.384;20.390;2022-08-25T12:35:31;819.90;230.40
55365;DHT22;41245;45.384;20.390;2022-08-25T12:38:11;844.80;256.00
55365;DHT22;41245;45.384;20.390;2022-08-25T12:45:46;845.30;256.00
55365;DHT22;41245;45.384;20.390;2022-08-25T12:50:59;845.10;256.00
55365;DHT22;41245;45.384;20.390;2022-08-25T12:53:42;845.20;256.00
55365;DHT22;41245;45.384;20.390;2022-08-25T12:56:35;845.30;256.00
55365;DHT22;41245;45.384;20.390;2022-08-25T13:15:46;845.30;256.00
55365;DHT22;41245;45.384;20.390;2022-08-25T13:18:29;845.30;256.00
55365;DHT22;41245;45.384;20.390;2022-08-25T13:21:12;845.30;256.00
55365;DHT22;41245;45.384;20.390;2022-08-25T13:23:42;845.40;256.00
55365;DHT22;41245;45.384;20.390;2022-08-25T13:26:13;845.60;256.00
55365;DHT22;41245;45.384;20.390;2022-08-25T13:28:40;845.60;256.00
55365;DHT22;41245;45.384;20.390;2022-08-25T13:31:18;845.30;256.00
55365;DHT22;41245;45.384;20.390;2022-08-25T13:33:51;845.10;256.00
55365;DHT22;41245;45.384;20.390;2022-08-25T13:36:18;845.20;256.00
55365;DHT22;41245;45.384;20.390;2022-08-25T13:39:23;845.20;256.00
55365;DHT22;41245;45.384;20.390;2022-08-25T13:41:53;845.00;256.00
55365;DHT22;41245;45.384;20.390;2022-08-25T13:44:22;845.00;256.00
55365;DHT22;41245;45.384;20.390;2022-08-25T13:47:11;844.90;256.00
55365;DHT22;41245;45.384;20.390;2022-08-25T13:49:39;844.80;256.00
55365;DHT22;41245;45.384;20.390;2022-08-25T13:52:06;844.80;256.00
55365;DHT22;41245;45.384;20.390;2022-08-25T13:54:38;844.80;256.00
55365;DHT22;41245;45.384;20.390;2022-08-25T13:57:21;844.80;256.00
55365;DHT22;41245;45.384;20.390;2022-08-25T13:59:50;845.00;256.00
55365;DHT22;41245;45.384;20.390;2022-08-25T14:02:38;844.90;256.00
55365;DHT22;41245;45.384;20.390;2022-08-25T14:05:03;844.80;256.00
55365;DHT22;41245;45.384;20.390;2022-08-25T14:07:29;844.80;256.00
55365;DHT22;41245;45.384;20.390;2022-08-25T14:10:03;820.10;230.40
55365;DHT22;41245;45.384;20.390;2022-08-25T14:12:43;820.10;230.40
55365;DHT22;41245;45.384;20.390;2022-08-25T14:17:45;844.80;256.00
55365;DHT22;41245;45.384;20.390;2022-08-25T14:20:25;844.80;256.00
55365;DHT22;41245;45.384;20.390;2022-08-25T14:22:58;845.00;256.00
55365;DHT22;41245;45.384;20.390;2022-08-25T14:25:26;845.10;256.00
55365;DHT22;41245;45.384;20.390;2022-08-25T14:28:01;845.20;256.00
55365;DHT22;41245;45.384;20.390;2022-08-25T14:30:29;845.20;256.00
55365;DHT22;41245;45.384;20.390;2022-08-25T14:32:56;845.10;256.00
55365;DHT22;41245;45.384;20.390;2022-08-25T14:35:23;845.20;256.00
55365;DHT22;41245;45.384;20.390;2022-08-25T14:37:48;845.00;256.00
55365;DHT22;41245;45.384;20.390;2022-08-25T14:40:14;844.90;256.00
55365;DHT22;41245;45.384;20.390;2022-08-25T14:42:45;844.80;256.00
55365;DHT22;41245;45.384;20.390;2022-08-25T14:45:15;820.00;230.40
55365;DHT22;41245;45.384;20.390;2022-08-25T14:47:42;819.70;230.40
55365;DHT22;41245;45.384;20.390;2022-08-25T14:50:10;819.70;230.40
55365;DHT22;41245;45.384;20.390;2022-08-25T14:52:36;819.70;230.40
55365;DHT22;41245;45.384;20.390;2022-08-25T14:55:01;819.90;230.40
55365;DHT22;41245;45.384;20.390;2022-08-25T14:57:27;820.00;230.40
55365;DHT22;41245;45.384;20.390;2022-08-25T14:59:53;820.10;230.40
55365;DHT22;41245;45.384;20.390;2022-08-25T15:02:21;844.80;256.00
55365;DHT22;41245;45.384;20.390;2022-08-25T15:04:56;820.10;230.40
55365;DHT22;41245;45.384;20.390;2022-08-25T15:07:22;844.80;256.00
55365;DHT22;41245;45.384;20.390;2022-08-25T15:10:08;844.80;256.00
55365;DHT22;41245;45.384;20.390;2022-08-25T15:12:34;844.80;256.00
55365;DHT22;41245;45.384;20.390;2022-08-25T15:15:00;844.80;256.00
55365;DHT22;41245;45.384;20.390;2022-08-25T15:17:29;844.80;256.00
55365;DHT22;41245;45.384;20.390;2022-08-25T15:19:55;820.10;230.40
55365;DHT22;41245;45.384;20.390;2022-08-25T15:22:21;820.00;230.40
55365;DHT22;41245;45.384;20.390;2022-08-25T15:24:48;819.90;230.40
55365;DHT22;41245;45.384;20.390;2022-08-25T15:27:17;819.90;230.40
55365;DHT22;41245;45.384;20.390;2022-08-25T15:29:43;820.00;230.40
55365;DHT22;41245;45.384;20.390;2022-08-25T15:32:09;820.00;230.40
55365;DHT22;41245;45.384;20.390;2022-08-25T15:34:35;820.00;230.40
55365;DHT22;41245;45.384;20.390;2022-08-25T15:37:13;820.00;230.40
55365;DHT22;41245;45.384;20.390;2022-08-25T15:39:40;819.90;230.40
55365;DHT22;41245;45.384;20.390;2022-08-25T15:42:08;819.70;230.40
55365;DHT22;41245;45.384;20.390;2022-08-25T15:44:39;819.70;230.40
55365;DHT22;41245;45.384;20.390;2022-08-25T15:47:05;819.70;230.40
55365;DHT22;41245;45.384;20.390;2022-08-25T15:49:31;819.70;230.40
55365;DHT22;41245;45.384;20.390;2022-08-25T15:51:58;819.60;230.40
55365;DHT22;41245;45.384;20.390;2022-08-25T15:54:25;819.50;230.40
55365;DHT22;41245;45.384;20.390;2022-08-25T15:56:51;819.50;230.40
55365;DHT22;41245;45.384;20.390;2022-08-25T15:59:18;819.40;230.40
55365;DHT22;41245;45.384;20.390;2022-08-25T16:01:43;819.40;230.40
55365;DHT22;41245;45.384;20.390;2022-08-25T16:04:10;819.20;230.40
55365;DHT22;41245;45.384;20.390;2022-08-25T16:06:36;819.20;230.40
55365;DHT22;41245;45.384;20.390;2022-08-25T16:09:03;794.50;230.40
55365;DHT22;41245;45.384;20.390;2022-08-25T16:11:31;794.50;230.40
55365;DHT22;41245;45.384;20.390;2022-08-25T16:13:58;794.50;230.40
55365;DHT22;41245;45.384;20.390;2022-08-25T16:16:25;794.50;230.40
55365;DHT22;41245;45.384;20.390;2022-08-25T16:18:52;794.50;230.40
55365;DHT22;41245;45.384;20.390;2022-08-25T16:21:31;794.50;230.40
55365;DHT22;41245;45.384;20.390;2022-08-25T16:24:01;794.50;230.40
55365;DHT22;41245;45.384;20.390;2022-08-25T16:26:29;794.50;230.40
55365;DHT22;41245;45.384;20.390;2022-08-25T16:28:55;794.40;230.40
55365;DHT22;41245;45.384;20.390;2022-08-25T16:31:20;794.40;230.40
55365;DHT22;41245;45.384;20.390;2022-08-25T16:33:46;794.30;230.40
55365;DHT22;41245;45.384;20.390;2022-08-25T16:36:16;794.20;230.40
55365;DHT22;41245;45.384;20.390;2022-08-25T16:38:44;794.10;230.40
55365;DHT22;41245;45.384;20.390;2022-08-25T16:41:12;794.00;230.40
55365;DHT22;41245;45.384;20.390;2022-08-25T16:43:39;794.00;230.40
55365;DHT22;41245;45.384;20.390;2022-08-25T16:46:07;793.90;230.40
55365;DHT22;41245;45.384;20.390;2022-08-25T16:48:34;793.70;230.40
55365;DHT22;41245;45.384;20.390;2022-08-25T16:51:08;793.60;230.40
55365;DHT22;41245;45.384;20.390;2022-08-25T16:53:34;768.90;204.80
55365;DHT22;41245;45.384;20.390;2022-08-25T16:56:18;768.80;204.80
55365;DHT22;41245;45.384;20.390;2022-08-25T16:58:51;768.70;204.80
55365;DHT22;41245;45.384;20.390;2022-08-25T17:01:18;768.60;204.80
55365;DHT22;41245;45.384;20.390;2022-08-25T17:03:45;768.50;204.80
55365;DHT22;41245;45.384;20.390;2022-08-25T17:06:11;768.50;204.80